sensor_id;sensor_type;location;lat;lon;timestamp;P1;durP1;ratioP1;P2;durP2;ratioP2
32297;SDS011;18782;48.984;8.548;2023-04-24T00:01:59;1.23;;;0.20;;
32297;SDS011;18782;48.984;8.548;2023-04-24T00:04:27;1.02;;;0.20;;
32297;SDS011;18782;48.984;8.548;2023-04-24T00:06:55;1.45;;;0.32;;
32297;SDS011;18782;48.984;8.548;2023-04-24T00:09:23;1.30;;;0.30;;
32297;SDS011;18782;48.984;8.548;2023-04-24T00:11:51;2.08;;;0.20;;
32297;SDS011;18782;48.984;8.548;2023-04-24T00:14:21;0.90;;;0.30;;
32297;SDS011;18782;48.984;8.548;2023-04-24T00:16:48;0.70;;;0.30;;
32297;SDS011;18782;48.984;8.548;2023-04-24T00:19:16;2.33;;;0.20;;
32297;SDS011;18782;48.984;8.548;2023-04-24T00:21:47;0.70;;;0.20;;
32297;SDS011;18782;48.984;8.548;2023-04-24T00:24:16;3.33;;;0.28;;
32297;SDS011;18782;48.984;8.548;2023-04-24T00:26:44;2.78;;;0.30;;
32297;SDS011;18782;48.984;8.548;2023-04-24T00:29:11;2.97;;;0.20;;
32297;SDS011;18782;48.984;8.548;2023-04-24T00:31:40;0.88;;;0.20;;
32297;SDS011;18782;48.984;8.548;2023-04-24T00:34:08;1.17;;;0.20;;
32297;SDS011;18782;48.984;8.548;2023-04-24T00:36:36;1.45;;;0.30;;
32297;SDS011;18782;48.984;8.548;2023-04-24T00:39:04;0.88;;;0.20;;
32297;SDS011;18782;48.984;8.548;2023-04-24T00:41:31;1.95;;;0.38;;
32297;SDS011;18782;48.984;8.548;2023-04-24T00:43:59;0.85;;;0.20;;
32297;SDS011;18782;48.984;8.548;2023-04-24T00:46:27;4.13;;;0.50;;
32297;SDS011;18782;48.984;8.548;2023-04-24T00:48:57;1.80;;;0.30;;
32297;SDS011;18782;48.984;8.548;2023-04-24T00:51:26;0.70;;;0.20;;
32297;SDS011;18782;48.984;8.548;2023-04-24T00:53:54;4.72;;;0.40;;
32297;SDS011;18782;48.984;8.548;2023-04-24T00:56:21;0.98;;;0.30;;
32297;SDS011;18782;48.984;8.548;2023-04-24T00:58:49;0.80;;;0.20;;
32297;SDS011;18782;48.984;8.548;2023-04-24T01:01:17;3.63;;;0.65;;
32297;SDS011;18782;48.984;8.548;2023-04-24T01:03:47;2.38;;;0.93;;
32297;SDS011;18782;48.984;8.548;2023-04-24T01:06:18;2.58;;;1.25;;
32297;SDS011;18782;48.984;8.548;2023-04-24T01:08:47;2.45;;;0.73;;
32297;SDS011;18782;48.984;8.548;2023-04-24T01:11:15;2.22;;;0.28;;
32297;SDS011;18782;48.984;8.548;2023-04-24T01:13:44;0.98;;;0.30;;
32297;SDS011;18782;48.984;8.548;2023-04-24T01:16:13;0.93;;;0.35;;
32297;SDS011;18782;48.984;8.548;2023-04-24T01:18:41;3.13;;;0.40;;
32297;SDS011;18782;48.984;8.548;2023-04-24T01:21:10;1.13;;;0.30;;
32297;SDS011;18782;48.984;8.548;2023-04-24T01:23:42;4.63;;;0.63;;
32297;SDS011;18782;48.984;8.548;2023-04-24T01:26:10;1.33;;;0.73;;
32297;SDS011;18782;48.984;8.548;2023-04-24T01:28:38;1.77;;;0.40;;
32297;SDS011;18782;48.984;8.548;2023-04-24T01:31:06;3.13;;;0.30;;
32297;SDS011;18782;48.984;8.548;2023-04-24T01:33:34;0.93;;;0.20;;
32297;SDS011;18782;48.984;8.548;2023-04-24T01:36:01;0.63;;;0.28;;
32297;SDS011;18782;48.984;8.548;2023-04-24T01:38:30;4.97;;;0.60;;
32297;SDS011;18782;48.984;8.548;2023-04-24T01:41:00;0.80;;;0.20;;
32297;SDS011;18782;48.984;8.548;2023-04-24T01:43:27;1.75;;;0.30;;
32297;SDS011;18782;48.984;8.548;2023-04-24T01:45:57;1.85;;;0.28;;
32297;SDS011;18782;48.984;8.548;2023-04-24T01:48:24;2.33;;;0.30;;
32297;SDS011;18782;48.984;8.548;2023-04-24T01:50:52;1.45;;;0.35;;
32297;SDS011;18782;48.984;8.548;2023-04-24T01:53:20;1.30;;;0.20;;
32297;SDS011;18782;48.984;8.548;2023-04-24T01:55:47;0.63;;;0.20;;
32297;SDS011;18782;48.984;8.548;2023-04-24T01:58:16;1.42;;;0.30;;
32297;SDS011;18782;48.984;8.548;2023-04-24T02:00:44;1.88;;;0.30;;
32297;SDS011;18782;48.984;8.548;2023-04-24T02:03:13;2.00;;;0.20;;
32297;SDS011;18782;48.984;8.548;2023-04-24T02:05:43;1.85;;;0.30;;
32297;SDS011;18782;48.984;8.548;2023-04-24T02:08:11;3.42;;;0.22;;
32297;SDS011;18782;48.984;8.548;2023-04-24T02:10:38;0.90;;;0.20;;
32297;SDS011;18782;48.984;8.548;2023-04-24T02:13:06;1.00;;;0.30;;
32297;SDS011;18782;48.984;8.548;2023-04-24T02:15:35;2.83;;;0.25;;
32297;SDS011;18782;48.984;8.548;2023-04-24T02:18:03;1.20;;;0.20;;
32297;SDS011;18782;48.984;8.548;2023-04-24T02:20:30;1.33;;;0.30;;
32297;SDS011;18782;48.984;8.548;2023-04-24T02:23:00;2.00;;;0.40;;
32297;SDS011;18782;48.984;8.548;2023-04-24T02:25:27;0.73;;;0.30;;
32297;SDS011;18782;48.984;8.548;2023-04-24T02:27:55;0.57;;;0.20;;
32297;SDS011;18782;48.984;8.548;2023-04-24T02:30:23;2.58;;;0.28;;
32297;SDS011;18782;48.984;8.548;2023-04-24T02:32:52;3.42;;;0.40;;
32297;SDS011;18782;48.984;8.548;2023-04-24T02:35:20;1.50;;;0.20;;
32297;SDS011;18782;48.984;8.548;2023-04-24T02:37:47;2.55;;;0.22;;
32297;SDS011;18782;48.984;8.548;2023-04-24T02:40:15;2.40;;;0.30;;
32297;SDS011;18782;48.984;8.548;2023-04-24T02:42:43;2.20;;;0.30;;
32297;SDS011;18782;48.984;8.548;2023-04-24T02:45:10;1.23;;;0.70;;
32297;SDS011;18782;48.984;8.548;2023-04-24T02:47:38;1.33;;;0.20;;
32297;SDS011;18782;48.984;8.548;2023-04-24T02:50:08;0.65;;;0.20;;
32297;SDS011;18782;48.984;8.548;2023-04-24T02:52:36;3.72;;;0.30;;
32297;SDS011;18782;48.984;8.548;2023-04-24T02:55:05;1.85;;;0.30;;
32297;SDS011;18782;48.984;8.548;2023-04-24T02:57:34;3.47;;;0.40;;
32297;SDS011;18782;48.984;8.548;2023-04-24T03:00:01;2.67;;;0.32;;
32297;SDS011;18782;48.984;8.548;2023-04-24T03:02:32;1.27;;;0.17;;
32297;SDS011;18782;48.984;8.548;2023-04-24T03:05:00;1.55;;;0.10;;
32297;SDS011;18782;48.984;8.548;2023-04-24T03:07:30;2.05;;;0.38;;
32297;SDS011;18782;48.984;8.548;2023-04-24T03:09:58;2.72;;;0.22;;
32297;SDS011;18782;48.984;8.548;2023-04-24T03:12:26;1.38;;;0.10;;
32297;SDS011;18782;48.984;8.548;2023-04-24T03:14:54;1.33;;;0.30;;
32297;SDS011;18782;48.984;8.548;2023-04-24T03:17:21;1.10;;;0.30;;
32297;SDS011;18782;48.984;8.548;2023-04-24T03:19:49;1.25;;;0.30;;
32297;SDS011;18782;48.984;8.548;2023-04-24T03:22:17;0.75;;;0.30;;
32297;SDS011;18782;48.984;8.548;2023-04-24T03:24:46;2.67;;;0.30;;
32297;SDS011;18782;48.984;8.548;2023-04-24T03:27:16;1.67;;;0.20;;
32297;SDS011;18782;48.984;8.548;2023-04-24T03:29:56;1.10;;;0.20;;
32297;SDS011;18782;48.984;8.548;2023-04-24T03:32:36;0.30;;;0.20;;
32297;SDS011;18782;48.984;8.548;2023-04-24T03:35:07;0.98;;;0.20;;
32297;SDS011;18782;48.984;8.548;2023-04-24T03:37:35;1.00;;;0.25;;
32297;SDS011;18782;48.984;8.548;2023-04-24T03:40:24;0.60;;;0.28;;
32297;SDS011;18782;48.984;8.548;2023-04-24T03:42:52;2.28;;;0.30;;
32297;SDS011;18782;48.984;8.548;2023-04-24T03:45:19;1.10;;;0.40;;
32297;SDS011;18782;48.984;8.548;2023-04-24T03:47:50;0.50;;;0.30;;
32297;SDS011;18782;48.984;8.548;2023-04-24T03:50:18;1.05;;;0.30;;
32297;SDS011;18782;48.984;8.548;2023-04-24T03:52:46;2.65;;;0.50;;
32297;SDS011;18782;48.984;8.548;2023-04-24T03:55:29;1.52;;;0.50;;
32297;SDS011;18782;48.984;8.548;2023-04-24T03:57:57;2.05;;;0.50;;
32297;SDS011;18782;48.984;8.548;2023-04-24T04:00:25;0.93;;;0.50;;
32297;SDS011;18782;48.984;8.548;2023-04-24T04:03:13;1.80;;;0.43;;
32297;SDS011;18782;48.984;8.548;2023-04-24T04:05:42;2.63;;;0.77;;
32297;SDS011;18782;48.984;8.548;2023-04-24T04:08:10;1.25;;;0.52;;
32297;SDS011;18782;48.984;8.548;2023-04-24T04:10:39;1.90;;;0.50;;
32297;SDS011;18782;48.984;8.548;2023-04-24T04:13:06;1.50;;;0.50;;
32297;SDS011;18782;48.984;8.548;2023-04-24T04:15:35;0.90;;;0.57;;
32297;SDS011;18782;48.984;8.548;2023-04-24T04:18:02;2.15;;;0.65;;
32297;SDS011;18782;48.984;8.548;2023-04-24T04:20:30;0.98;;;0.50;;
32297;SDS011;18782;48.984;8.548;2023-04-24T04:22:58;1.52;;;0.40;;
32297;SDS011;18782;48.984;8.548;2023-04-24T04:25:39;1.67;;;0.40;;
32297;SDS011;18782;48.984;8.548;2023-04-24T04:28:07;0.75;;;0.40;;
32297;SDS011;18782;48.984;8.548;2023-04-24T04:30:36;1.35;;;0.50;;
32297;SDS011;18782;48.984;8.548;2023-04-24T04:33:04;0.90;;;0.60;;
32297;SDS011;18782;48.984;8.548;2023-04-24T04:35:33;3.45;;;1.50;;
32297;SDS011;18782;48.984;8.548;2023-04-24T04:38:01;0.98;;;0.60;;
32297;SDS011;18782;48.984;8.548;2023-04-24T04:41:02;1.90;;;0.77;;
32297;SDS011;18782;48.984;8.548;2023-04-24T04:43:32;1.48;;;0.70;;
32297;SDS011;18782;48.984;8.548;2023-04-24T04:46:00;1.85;;;0.70;;
32297;SDS011;18782;48.984;8.548;2023-04-24T04:48:41;3.42;;;0.93;;
32297;SDS011;18782;48.984;8.548;2023-04-24T04:51:09;1.00;;;0.50;;
32297;SDS011;18782;48.984;8.548;2023-04-24T04:53:37;1.15;;;0.70;;
32297;SDS011;18782;48.984;8.548;2023-04-24T04:56:06;1.85;;;0.85;;
32297;SDS011;18782;48.984;8.548;2023-04-24T04:58:40;2.08;;;0.98;;
32297;SDS011;18782;48.984;8.548;2023-04-24T05:01:11;2.00;;;1.27;;
32297;SDS011;18782;48.984;8.548;2023-04-24T05:03:43;3.83;;;0.98;;
32297;SDS011;18782;48.984;8.548;2023-04-24T05:06:13;1.83;;;0.80;;
32297;SDS011;18782;48.984;8.548;2023-04-24T05:08:42;3.38;;;1.10;;
32297;SDS011;18782;48.984;8.548;2023-04-24T05:11:21;3.22;;;1.20;;
32297;SDS011;18782;48.984;8.548;2023-04-24T05:13:50;1.50;;;0.93;;
32297;SDS011;18782;48.984;8.548;2023-04-24T05:16:23;3.38;;;0.95;;
32297;SDS011;18782;48.984;8.548;2023-04-24T05:18:53;3.80;;;1.33;;
32297;SDS011;18782;48.984;8.548;2023-04-24T05:21:27;2.30;;;1.20;;
32297;SDS011;18782;48.984;8.548;2023-04-24T05:23:55;3.28;;;1.00;;
32297;SDS011;18782;48.984;8.548;2023-04-24T05:26:39;2.25;;;1.35;;
32297;SDS011;18782;48.984;8.548;2023-04-24T05:29:08;3.65;;;2.65;;
32297;SDS011;18782;48.984;8.548;2023-04-24T05:31:35;2.72;;;1.17;;
32297;SDS011;18782;48.984;8.548;2023-04-24T05:34:04;2.58;;;1.13;;
32297;SDS011;18782;48.984;8.548;2023-04-24T05:36:32;2.60;;;0.85;;
32297;SDS011;18782;48.984;8.548;2023-04-24T05:38:59;2.42;;;1.10;;
32297;SDS011;18782;48.984;8.548;2023-04-24T05:41:27;1.75;;;0.70;;
32297;SDS011;18782;48.984;8.548;2023-04-24T05:43:56;1.95;;;1.20;;
32297;SDS011;18782;48.984;8.548;2023-04-24T05:46:24;3.60;;;1.00;;
32297;SDS011;18782;48.984;8.548;2023-04-24T05:48:51;1.20;;;0.77;;
32297;SDS011;18782;48.984;8.548;2023-04-24T05:51:19;2.10;;;1.10;;
32297;SDS011;18782;48.984;8.548;2023-04-24T05:53:47;2.80;;;1.00;;
32297;SDS011;18782;48.984;8.548;2023-04-24T05:56:15;1.25;;;0.90;;
32297;SDS011;18782;48.984;8.548;2023-04-24T05:58:43;1.50;;;1.10;;
32297;SDS011;18782;48.984;8.548;2023-04-24T06:01:12;2.47;;;0.93;;
32297;SDS011;18782;48.984;8.548;2023-04-24T06:03:43;2.03;;;0.98;;
32297;SDS011;18782;48.984;8.548;2023-04-24T06:06:11;1.90;;;1.13;;
32297;SDS011;18782;48.984;8.548;2023-04-24T06:08:39;1.95;;;1.10;;
32297;SDS011;18782;48.984;8.548;2023-04-24T06:11:08;1.75;;;0.93;;
32297;SDS011;18782;48.984;8.548;2023-04-24T06:13:37;4.68;;;1.88;;
32297;SDS011;18782;48.984;8.548;2023-04-24T06:16:25;3.58;;;1.58;;
32297;SDS011;18782;48.984;8.548;2023-04-24T06:18:59;2.15;;;0.98;;
32297;SDS011;18782;48.984;8.548;2023-04-24T06:21:27;1.77;;;1.20;;
32297;SDS011;18782;48.984;8.548;2023-04-24T06:23:54;2.72;;;1.35;;
32297;SDS011;18782;48.984;8.548;2023-04-24T06:26:23;2.13;;;1.38;;
32297;SDS011;18782;48.984;8.548;2023-04-24T06:28:52;2.50;;;1.10;;
32297;SDS011;18782;48.984;8.548;2023-04-24T06:31:20;2.20;;;1.02;;
32297;SDS011;18782;48.984;8.548;2023-04-24T06:33:49;3.90;;;1.25;;
32297;SDS011;18782;48.984;8.548;2023-04-24T06:36:17;1.50;;;0.93;;
32297;SDS011;18782;48.984;8.548;2023-04-24T06:38:45;2.03;;;1.20;;
32297;SDS011;18782;48.984;8.548;2023-04-24T06:41:12;1.77;;;1.10;;
32297;SDS011;18782;48.984;8.548;2023-04-24T06:43:40;3.50;;;1.58;;
32297;SDS011;18782;48.984;8.548;2023-04-24T06:46:08;1.35;;;0.98;;
32297;SDS011;18782;48.984;8.548;2023-04-24T06:48:35;2.97;;;1.00;;
32297;SDS011;18782;48.984;8.548;2023-04-24T06:51:04;2.00;;;1.00;;
32297;SDS011;18782;48.984;8.548;2023-04-24T06:53:32;2.05;;;1.00;;
32297;SDS011;18782;48.984;8.548;2023-04-24T06:56:00;1.90;;;1.00;;
32297;SDS011;18782;48.984;8.548;2023-04-24T06:58:27;2.30;;;1.20;;
32297;SDS011;18782;48.984;8.548;2023-04-24T07:00:55;1.65;;;0.80;;
32297;SDS011;18782;48.984;8.548;2023-04-24T07:03:23;1.30;;;0.80;;
32297;SDS011;18782;48.984;8.548;2023-04-24T07:05:51;2.90;;;0.90;;
32297;SDS011;18782;48.984;8.548;2023-04-24T07:08:20;1.95;;;1.00;;
32297;SDS011;18782;48.984;8.548;2023-04-24T07:10:49;1.98;;;0.70;;
32297;SDS011;18782;48.984;8.548;2023-04-24T07:13:17;3.17;;;0.90;;
32297;SDS011;18782;48.984;8.548;2023-04-24T07:15:45;2.30;;;0.80;;
32297;SDS011;18782;48.984;8.548;2023-04-24T07:18:15;1.33;;;0.70;;
32297;SDS011;18782;48.984;8.548;2023-04-24T07:20:42;3.22;;;1.10;;
32297;SDS011;18782;48.984;8.548;2023-04-24T07:23:10;2.30;;;1.13;;
32297;SDS011;18782;48.984;8.548;2023-04-24T07:25:39;1.92;;;0.95;;
32297;SDS011;18782;48.984;8.548;2023-04-24T07:28:07;1.48;;;0.80;;
32297;SDS011;18782;48.984;8.548;2023-04-24T07:30:35;2.47;;;1.17;;
32297;SDS011;18782;48.984;8.548;2023-04-24T07:33:03;1.98;;;0.90;;
32297;SDS011;18782;48.984;8.548;2023-04-24T07:35:30;3.67;;;1.00;;
32297;SDS011;18782;48.984;8.548;2023-04-24T07:37:58;1.75;;;0.80;;
32297;SDS011;18782;48.984;8.548;2023-04-24T07:40:26;1.83;;;1.00;;
32297;SDS011;18782;48.984;8.548;2023-04-24T07:42:55;2.85;;;0.70;;
32297;SDS011;18782;48.984;8.548;2023-04-24T07:45:22;1.20;;;0.80;;
32297;SDS011;18782;48.984;8.548;2023-04-24T07:47:52;2.45;;;0.60;;
32297;SDS011;18782;48.984;8.548;2023-04-24T07:50:20;1.98;;;0.70;;
32297;SDS011;18782;48.984;8.548;2023-04-24T07:52:48;1.08;;;0.60;;
32297;SDS011;18782;48.984;8.548;2023-04-24T07:55:15;1.10;;;0.50;;
32297;SDS011;18782;48.984;8.548;2023-04-24T07:57:44;1.60;;;0.98;;
32297;SDS011;18782;48.984;8.548;2023-04-24T08:00:13;2.35;;;0.95;;
32297;SDS011;18782;48.984;8.548;2023-04-24T08:02:42;1.85;;;0.60;;
32297;SDS011;18782;48.984;8.548;2023-04-24T08:05:09;2.40;;;0.60;;
32297;SDS011;18782;48.984;8.548;2023-04-24T08:07:37;2.33;;;0.60;;
32297;SDS011;18782;48.984;8.548;2023-04-24T08:10:06;2.45;;;1.02;;
32297;SDS011;18782;48.984;8.548;2023-04-24T08:12:34;1.63;;;0.77;;
32297;SDS011;18782;48.984;8.548;2023-04-24T08:15:02;1.65;;;0.60;;
32297;SDS011;18782;48.984;8.548;2023-04-24T08:17:31;1.55;;;0.52;;
32297;SDS011;18782;48.984;8.548;2023-04-24T08:19:59;3.20;;;0.98;;
32297;SDS011;18782;48.984;8.548;2023-04-24T08:22:28;2.13;;;0.60;;
32297;SDS011;18782;48.984;8.548;2023-04-24T08:24:55;1.60;;;0.57;;
32297;SDS011;18782;48.984;8.548;2023-04-24T08:27:23;1.20;;;0.50;;
32297;SDS011;18782;48.984;8.548;2023-04-24T08:29:52;1.77;;;0.45;;
32297;SDS011;18782;48.984;8.548;2023-04-24T08:32:20;1.08;;;0.50;;
32297;SDS011;18782;48.984;8.548;2023-04-24T08:34:49;1.77;;;0.60;;
32297;SDS011;18782;48.984;8.548;2023-04-24T08:37:18;1.40;;;0.55;;
32297;SDS011;18782;48.984;8.548;2023-04-24T08:39:46;2.83;;;0.88;;
32297;SDS011;18782;48.984;8.548;2023-04-24T08:42:13;3.70;;;0.70;;
32297;SDS011;18782;48.984;8.548;2023-04-24T08:44:41;2.08;;;0.70;;
32297;SDS011;18782;48.984;8.548;2023-04-24T08:47:09;2.97;;;0.60;;
32297;SDS011;18782;48.984;8.548;2023-04-24T08:49:40;2.53;;;0.70;;
32297;SDS011;18782;48.984;8.548;2023-04-24T08:52:09;1.85;;;0.50;;
32297;SDS011;18782;48.984;8.548;2023-04-24T08:54:39;1.33;;;0.70;;
32297;SDS011;18782;48.984;8.548;2023-04-24T08:57:07;1.38;;;0.70;;
32297;SDS011;18782;48.984;8.548;2023-04-24T08:59:37;1.67;;;0.70;;
32297;SDS011;18782;48.984;8.548;2023-04-24T09:02:05;2.25;;;0.70;;
32297;SDS011;18782;48.984;8.548;2023-04-24T09:04:37;3.00;;;0.60;;
32297;SDS011;18782;48.984;8.548;2023-04-24T09:07:06;2.35;;;0.60;;
32297;SDS011;18782;48.984;8.548;2023-04-24T09:09:37;0.98;;;0.60;;
32297;SDS011;18782;48.984;8.548;2023-04-24T09:12:06;3.53;;;0.60;;
32297;SDS011;18782;48.984;8.548;2023-04-24T09:14:36;1.27;;;0.63;;
32297;SDS011;18782;48.984;8.548;2023-04-24T09:17:08;2.60;;;0.70;;
32297;SDS011;18782;48.984;8.548;2023-04-24T09:19:36;1.20;;;0.70;;
32297;SDS011;18782;48.984;8.548;2023-04-24T09:22:04;1.55;;;0.60;;
32297;SDS011;18782;48.984;8.548;2023-04-24T09:24:34;1.83;;;0.63;;
32297;SDS011;18782;48.984;8.548;2023-04-24T09:27:02;2.60;;;0.60;;
32297;SDS011;18782;48.984;8.548;2023-04-24T09:29:31;1.63;;;0.70;;
32297;SDS011;18782;48.984;8.548;2023-04-24T09:31:59;1.55;;;0.60;;
32297;SDS011;18782;48.984;8.548;2023-04-24T09:34:26;2.22;;;0.82;;
32297;SDS011;18782;48.984;8.548;2023-04-24T09:36:54;2.65;;;0.68;;
32297;SDS011;18782;48.984;8.548;2023-04-24T09:39:22;3.05;;;0.70;;
32297;SDS011;18782;48.984;8.548;2023-04-24T09:41:51;1.90;;;0.80;;
32297;SDS011;18782;48.984;8.548;2023-04-24T09:44:21;1.30;;;0.70;;
32297;SDS011;18782;48.984;8.548;2023-04-24T09:46:50;2.03;;;0.80;;
32297;SDS011;18782;48.984;8.548;2023-04-24T09:49:21;2.67;;;1.00;;
32297;SDS011;18782;48.984;8.548;2023-04-24T09:51:50;2.00;;;0.98;;
32297;SDS011;18782;48.984;8.548;2023-04-24T09:54:18;3.45;;;1.20;;
32297;SDS011;18782;48.984;8.548;2023-04-24T09:56:47;1.52;;;1.10;;
32297;SDS011;18782;48.984;8.548;2023-04-24T09:59:17;1.90;;;0.90;;
32297;SDS011;18782;48.984;8.548;2023-04-24T10:01:46;1.80;;;1.00;;
32297;SDS011;18782;48.984;8.548;2023-04-24T10:04:15;3.00;;;1.20;;
32297;SDS011;18782;48.984;8.548;2023-04-24T10:06:44;3.28;;;1.05;;
32297;SDS011;18782;48.984;8.548;2023-04-24T10:09:13;1.60;;;0.95;;
32297;SDS011;18782;48.984;8.548;2023-04-24T10:11:41;3.08;;;1.02;;
32297;SDS011;18782;48.984;8.548;2023-04-24T10:14:10;2.22;;;0.98;;
32297;SDS011;18782;48.984;8.548;2023-04-24T10:16:41;2.15;;;1.13;;
32297;SDS011;18782;48.984;8.548;2023-04-24T10:19:10;3.22;;;0.95;;
32297;SDS011;18782;48.984;8.548;2023-04-24T10:21:39;3.40;;;1.08;;
32297;SDS011;18782;48.984;8.548;2023-04-24T10:24:08;2.50;;;0.73;;
32297;SDS011;18782;48.984;8.548;2023-04-24T10:26:36;1.50;;;0.88;;
32297;SDS011;18782;48.984;8.548;2023-04-24T10:29:04;2.58;;;0.90;;
32297;SDS011;18782;48.984;8.548;2023-04-24T10:31:36;2.63;;;1.00;;
32297;SDS011;18782;48.984;8.548;2023-04-24T10:34:05;1.15;;;0.70;;
32297;SDS011;18782;48.984;8.548;2023-04-24T10:36:34;2.03;;;0.98;;
32297;SDS011;18782;48.984;8.548;2023-04-24T10:39:03;2.47;;;0.90;;
32297;SDS011;18782;48.984;8.548;2023-04-24T10:41:36;2.67;;;1.30;;
32297;SDS011;18782;48.984;8.548;2023-04-24T10:44:04;3.78;;;1.30;;
32297;SDS011;18782;48.984;8.548;2023-04-24T10:46:33;1.70;;;1.00;;
32297;SDS011;18782;48.984;8.548;2023-04-24T10:49:03;3.03;;;1.33;;
32297;SDS011;18782;48.984;8.548;2023-04-24T10:51:47;1.73;;;0.95;;
32297;SDS011;18782;48.984;8.548;2023-04-24T10:54:21;2.93;;;1.10;;
32297;SDS011;18782;48.984;8.548;2023-04-24T10:56:50;1.40;;;1.05;;
32297;SDS011;18782;48.984;8.548;2023-04-24T10:59:24;3.20;;;1.30;;
32297;SDS011;18782;48.984;8.548;2023-04-24T11:01:52;5.68;;;1.65;;
32297;SDS011;18782;48.984;8.548;2023-04-24T11:04:31;2.63;;;1.20;;
32297;SDS011;18782;48.984;8.548;2023-04-24T11:07:03;1.70;;;0.90;;
32297;SDS011;18782;48.984;8.548;2023-04-24T11:09:31;2.45;;;0.85;;
32297;SDS011;18782;48.984;8.548;2023-04-24T11:12:04;1.38;;;1.05;;
32297;SDS011;18782;48.984;8.548;2023-04-24T11:17:37;3.13;;;1.27;;
32297;SDS011;18782;48.984;8.548;2023-04-24T11:20:07;2.35;;;1.20;;
32297;SDS011;18782;48.984;8.548;2023-04-24T11:22:54;1.48;;;0.85;;
32297;SDS011;18782;48.984;8.548;2023-04-24T11:25:23;1.83;;;0.98;;
32297;SDS011;18782;48.984;8.548;2023-04-24T11:28:00;1.63;;;1.08;;
32297;SDS011;18782;48.984;8.548;2023-04-24T11:30:31;1.48;;;0.93;;
32297;SDS011;18782;48.984;8.548;2023-04-24T11:33:01;2.53;;;1.00;;
32297;SDS011;18782;48.984;8.548;2023-04-24T11:35:30;2.22;;;1.00;;
32297;SDS011;18782;48.984;8.548;2023-04-24T11:38:04;3.67;;;1.20;;
32297;SDS011;18782;48.984;8.548;2023-04-24T11:40:49;1.90;;;1.00;;
32297;SDS011;18782;48.984;8.548;2023-04-24T11:43:17;1.70;;;1.20;;
32297;SDS011;18782;48.984;8.548;2023-04-24T11:45:47;3.10;;;1.40;;
32297;SDS011;18782;48.984;8.548;2023-04-24T11:48:18;4.32;;;2.15;;
32297;SDS011;18782;48.984;8.548;2023-04-24T11:50:48;2.15;;;1.25;;
32297;SDS011;18782;48.984;8.548;2023-04-24T11:53:19;3.83;;;2.50;;
32297;SDS011;18782;48.984;8.548;2023-04-24T11:55:47;4.25;;;2.75;;
32297;SDS011;18782;48.984;8.548;2023-04-24T11:58:15;3.00;;;2.63;;
32297;SDS011;18782;48.984;8.548;2023-04-24T12:00:54;3.53;;;1.60;;
32297;SDS011;18782;48.984;8.548;2023-04-24T12:03:23;3.85;;;2.35;;
32297;SDS011;18782;48.984;8.548;2023-04-24T12:05:51;4.18;;;2.40;;
32297;SDS011;18782;48.984;8.548;2023-04-24T12:08:28;3.28;;;2.08;;
32297;SDS011;18782;48.984;8.548;2023-04-24T12:10:55;2.85;;;2.15;;
32297;SDS011;18782;48.984;8.548;2023-04-24T12:13:24;3.28;;;2.00;;
32297;SDS011;18782;48.984;8.548;2023-04-24T12:15:52;3.25;;;1.90;;
32297;SDS011;18782;48.984;8.548;2023-04-24T12:18:22;2.92;;;2.15;;
32297;SDS011;18782;48.984;8.548;2023-04-24T12:20:49;7.13;;;3.35;;
32297;SDS011;18782;48.984;8.548;2023-04-24T12:26:10;4.50;;;2.60;;
32297;SDS011;18782;48.984;8.548;2023-04-24T12:28:38;3.72;;;2.53;;
32297;SDS011;18782;48.984;8.548;2023-04-24T12:31:06;5.60;;;2.40;;
32297;SDS011;18782;48.984;8.548;2023-04-24T12:33:35;3.90;;;2.17;;
32297;SDS011;18782;48.984;8.548;2023-04-24T12:36:03;2.72;;;2.10;;
32297;SDS011;18782;48.984;8.548;2023-04-24T12:38:32;2.30;;;1.70;;
32297;SDS011;18782;48.984;8.548;2023-04-24T12:41:06;3.08;;;1.50;;
32297;SDS011;18782;48.984;8.548;2023-04-24T12:43:36;2.65;;;1.70;;
32297;SDS011;18782;48.984;8.548;2023-04-24T12:46:04;1.85;;;1.52;;
32297;SDS011;18782;48.984;8.548;2023-04-24T12:48:32;3.25;;;1.70;;
32297;SDS011;18782;48.984;8.548;2023-04-24T12:51:00;5.30;;;1.88;;
32297;SDS011;18782;48.984;8.548;2023-04-24T12:53:27;2.92;;;1.92;;
32297;SDS011;18782;48.984;8.548;2023-04-24T12:55:57;6.53;;;1.95;;
32297;SDS011;18782;48.984;8.548;2023-04-24T12:58:24;3.45;;;1.70;;
32297;SDS011;18782;48.984;8.548;2023-04-24T13:00:53;2.53;;;1.40;;
32297;SDS011;18782;48.984;8.548;2023-04-24T13:03:21;1.98;;;1.50;;
32297;SDS011;18782;48.984;8.548;2023-04-24T13:05:50;3.13;;;1.48;;
32297;SDS011;18782;48.984;8.548;2023-04-24T13:08:18;2.47;;;1.15;;
32297;SDS011;18782;48.984;8.548;2023-04-24T13:10:45;2.03;;;1.25;;
32297;SDS011;18782;48.984;8.548;2023-04-24T13:13:13;4.80;;;1.95;;
32297;SDS011;18782;48.984;8.548;2023-04-24T13:15:41;3.75;;;1.92;;
32297;SDS011;18782;48.984;8.548;2023-04-24T13:18:10;4.78;;;1.80;;
32297;SDS011;18782;48.984;8.548;2023-04-24T13:20:38;2.70;;;1.58;;
32297;SDS011;18782;48.984;8.548;2023-04-24T13:23:07;2.65;;;1.67;;
32297;SDS011;18782;48.984;8.548;2023-04-24T13:25:35;3.22;;;1.50;;
32297;SDS011;18782;48.984;8.548;2023-04-24T13:28:03;3.30;;;1.20;;
32297;SDS011;18782;48.984;8.548;2023-04-24T13:30:31;3.28;;;1.73;;
32297;SDS011;18782;48.984;8.548;2023-04-24T13:32:58;1.92;;;1.23;;
32297;SDS011;18782;48.984;8.548;2023-04-24T13:35:27;2.45;;;1.55;;
32297;SDS011;18782;48.984;8.548;2023-04-24T13:37:55;2.92;;;1.55;;
32297;SDS011;18782;48.984;8.548;2023-04-24T13:40:22;3.25;;;1.70;;
32297;SDS011;18782;48.984;8.548;2023-04-24T13:42:50;3.00;;;1.70;;
32297;SDS011;18782;48.984;8.548;2023-04-24T13:45:18;2.45;;;1.55;;
32297;SDS011;18782;48.984;8.548;2023-04-24T13:47:51;4.90;;;2.50;;
32297;SDS011;18782;48.984;8.548;2023-04-24T13:50:19;4.32;;;1.90;;
32297;SDS011;18782;48.984;8.548;2023-04-24T13:52:48;2.45;;;1.77;;
32297;SDS011;18782;48.984;8.548;2023-04-24T13:55:16;3.92;;;1.60;;
32297;SDS011;18782;48.984;8.548;2023-04-24T13:57:44;3.88;;;1.80;;
32297;SDS011;18782;48.984;8.548;2023-04-24T14:00:12;2.30;;;1.30;;
32297;SDS011;18782;48.984;8.548;2023-04-24T14:02:40;3.80;;;1.50;;
32297;SDS011;18782;48.984;8.548;2023-04-24T14:05:08;2.42;;;1.35;;
32297;SDS011;18782;48.984;8.548;2023-04-24T14:07:37;2.97;;;1.30;;
32297;SDS011;18782;48.984;8.548;2023-04-24T14:10:06;4.60;;;1.50;;
32297;SDS011;18782;48.984;8.548;2023-04-24T14:12:34;2.38;;;1.10;;
32297;SDS011;18782;48.984;8.548;2023-04-24T14:15:02;2.67;;;0.98;;
32297;SDS011;18782;48.984;8.548;2023-04-24T14:17:30;3.80;;;1.30;;
32297;SDS011;18782;48.984;8.548;2023-04-24T14:19:58;2.38;;;1.10;;
32297;SDS011;18782;48.984;8.548;2023-04-24T14:22:26;3.20;;;0.93;;
32297;SDS011;18782;48.984;8.548;2023-04-24T14:24:54;2.25;;;1.13;;
32297;SDS011;18782;48.984;8.548;2023-04-24T14:27:23;3.88;;;1.40;;
32297;SDS011;18782;48.984;8.548;2023-04-24T14:29:51;1.75;;;0.85;;
32297;SDS011;18782;48.984;8.548;2023-04-24T14:32:22;1.58;;;1.33;;
32297;SDS011;18782;48.984;8.548;2023-04-24T14:34:49;2.47;;;1.55;;
32297;SDS011;18782;48.984;8.548;2023-04-24T14:37:17;2.28;;;1.50;;
32297;SDS011;18782;48.984;8.548;2023-04-24T14:39:45;2.05;;;1.20;;
32297;SDS011;18782;48.984;8.548;2023-04-24T14:42:27;2.38;;;1.27;;
32297;SDS011;18782;48.984;8.548;2023-04-24T14:44:55;1.92;;;1.13;;
32297;SDS011;18782;48.984;8.548;2023-04-24T14:47:23;4.03;;;1.00;;
32297;SDS011;18782;48.984;8.548;2023-04-24T14:49:50;2.70;;;0.68;;
32297;SDS011;18782;48.984;8.548;2023-04-24T14:52:18;0.88;;;0.60;;
32297;SDS011;18782;48.984;8.548;2023-04-24T14:54:46;0.70;;;0.40;;
32297;SDS011;18782;48.984;8.548;2023-04-24T14:57:13;2.30;;;0.80;;
32297;SDS011;18782;48.984;8.548;2023-04-24T14:59:43;1.20;;;0.68;;
32297;SDS011;18782;48.984;8.548;2023-04-24T15:02:10;1.33;;;0.40;;
32297;SDS011;18782;48.984;8.548;2023-04-24T15:04:42;1.13;;;0.75;;
32297;SDS011;18782;48.984;8.548;2023-04-24T15:07:10;1.13;;;0.70;;